sensor_id;sensor_type;location;lat;lon;timestamp;P1;durP1;ratioP1;P2;durP2;ratioP2
3405;SDS011;10008;48.682;9.016;2023-07-13T00:01:28;12.70;;;11.60;;
3405;SDS011;10008;48.682;9.016;2023-07-13T00:03:55;11.50;;;10.60;;
3405;SDS011;10008;48.682;9.016;2023-07-13T00:06:22;11.27;;;10.37;;
3405;SDS011;10008;48.682;9.016;2023-07-13T00:08:47;11.90;;;10.97;;
3405;SDS011;10008;48.682;9.016;2023-07-13T00:11:14;12.10;;;11.10;;
3405;SDS011;10008;48.682;9.016;2023-07-13T00:13:42;11.90;;;10.90;;
3405;SDS011;10008;48.682;9.016;2023-07-13T00:16:09;11.70;;;10.70;;
3405;SDS011;10008;48.682;9.016;2023-07-13T00:18:36;11.47;;;10.57;;
3405;SDS011;10008;48.682;9.016;2023-07-13T00:21:03;11.30;;;10.40;;
3405;SDS011;10008;48.682;9.016;2023-07-13T00:23:33;11.50;;;10.60;;
3405;SDS011;10008;48.682;9.016;2023-07-13T00:26:03;11.60;;;10.70;;
3405;SDS011;10008;48.682;9.016;2023-07-13T00:28:30;11.63;;;10.73;;
3405;SDS011;10008;48.682;9.016;2023-07-13T00:30:56;11.70;;;10.80;;
3405;SDS011;10008;48.682;9.016;2023-07-13T00:33:23;11.60;;;10.70;;
3405;SDS011;10008;48.682;9.016;2023-07-13T00:35:49;11.73;;;10.80;;
3405;SDS011;10008;48.682;9.016;2023-07-13T00:38:15;12.00;;;11.00;;
3405;SDS011;10008;48.682;9.016;2023-07-13T00:40:41;12.10;;;11.10;;
3405;SDS011;10008;48.682;9.016;2023-07-13T00:43:09;11.90;;;10.90;;
3405;SDS011;10008;48.682;9.016;2023-07-13T00:48:09;11.23;;;10.33;;
3405;SDS011;10008;48.682;9.016;2023-07-13T00:50:36;12.23;;;11.23;;
3405;SDS011;10008;48.682;9.016;2023-07-13T00:53:03;11.47;;;10.57;;
3405;SDS011;10008;48.682;9.016;2023-07-13T00:55:29;11.53;;;10.60;;
3405;SDS011;10008;48.682;9.016;2023-07-13T00:57:55;11.40;;;10.50;;
3405;SDS011;10008;48.682;9.016;2023-07-13T01:00:21;11.90;;;10.90;;
3405;SDS011;10008;48.682;9.016;2023-07-13T01:02:48;11.47;;;10.57;;
3405;SDS011;10008;48.682;9.016;2023-07-13T01:05:15;11.70;;;10.70;;
3405;SDS011;10008;48.682;9.016;2023-07-13T01:07:43;11.37;;;10.47;;
3405;SDS011;10008;48.682;9.016;2023-07-13T01:10:11;12.10;;;11.10;;
3405;SDS011;10008;48.682;9.016;2023-07-13T01:12:37;11.90;;;10.90;;
3405;SDS011;10008;48.682;9.016;2023-07-13T01:15:04;11.70;;;10.77;;
3405;SDS011;10008;48.682;9.016;2023-07-13T01:17:31;11.77;;;10.80;;
3405;SDS011;10008;48.682;9.016;2023-07-13T01:19:59;12.10;;;11.10;;
3405;SDS011;10008;48.682;9.016;2023-07-13T01:22:25;11.93;;;10.93;;
3405;SDS011;10008;48.682;9.016;2023-07-13T01:24:52;11.80;;;10.80;;
3405;SDS011;10008;48.682;9.016;2023-07-13T01:27:23;12.20;;;11.20;;
3405;SDS011;10008;48.682;9.016;2023-07-13T01:29:51;12.40;;;11.40;;
3405;SDS011;10008;48.682;9.016;2023-07-13T01:32:19;12.17;;;11.17;;
3405;SDS011;10008;48.682;9.016;2023-07-13T01:34:49;12.00;;;11.00;;
3405;SDS011;10008;48.682;9.016;2023-07-13T01:37:16;11.60;;;10.70;;
3405;SDS011;10008;48.682;9.016;2023-07-13T01:39:42;11.57;;;10.60;;
3405;SDS011;10008;48.682;9.016;2023-07-13T01:42:08;11.70;;;10.70;;
3405;SDS011;10008;48.682;9.016;2023-07-13T01:44:34;11.70;;;10.70;;
3405;SDS011;10008;48.682;9.016;2023-07-13T01:47:00;11.90;;;10.90;;
3405;SDS011;10008;48.682;9.016;2023-07-13T01:49:26;12.00;;;11.00;;
3405;SDS011;10008;48.682;9.016;2023-07-13T01:51:52;12.10;;;11.10;;
3405;SDS011;10008;48.682;9.016;2023-07-13T01:54:18;12.10;;;11.10;;
3405;SDS011;10008;48.682;9.016;2023-07-13T01:56:43;11.53;;;10.60;;
3405;SDS011;10008;48.682;9.016;2023-07-13T01:59:09;11.30;;;10.40;;
3405;SDS011;10008;48.682;9.016;2023-07-13T02:01:35;11.00;;;10.10;;
3405;SDS011;10008;48.682;9.016;2023-07-13T02:04:01;11.30;;;10.40;;
3405;SDS011;10008;48.682;9.016;2023-07-13T02:06:31;11.20;;;10.30;;
3405;SDS011;10008;48.682;9.016;2023-07-13T02:08:57;11.53;;;10.63;;
3405;SDS011;10008;48.682;9.016;2023-07-13T02:11:24;11.37;;;10.47;;
3405;SDS011;10008;48.682;9.016;2023-07-13T02:13:50;11.50;;;10.60;;
3405;SDS011;10008;48.682;9.016;2023-07-13T02:16:17;11.30;;;10.40;;
3405;SDS011;10008;48.682;9.016;2023-07-13T02:18:42;11.43;;;10.53;;
3405;SDS011;10008;48.682;9.016;2023-07-13T02:21:08;11.53;;;10.63;;
3405;SDS011;10008;48.682;9.016;2023-07-13T02:23:34;11.30;;;10.40;;
3405;SDS011;10008;48.682;9.016;2023-07-13T02:26:00;11.20;;;10.30;;
3405;SDS011;10008;48.682;9.016;2023-07-13T02:28:27;11.20;;;10.30;;
3405;SDS011;10008;48.682;9.016;2023-07-13T02:30:53;11.27;;;10.37;;
3405;SDS011;10008;48.682;9.016;2023-07-13T02:33:19;11.50;;;10.60;;
3405;SDS011;10008;48.682;9.016;2023-07-13T02:35:47;11.40;;;10.50;;
3405;SDS011;10008;48.682;9.016;2023-07-13T02:38:13;11.30;;;10.40;;
3405;SDS011;10008;48.682;9.016;2023-07-13T02:40:39;11.73;;;10.73;;
3405;SDS011;10008;48.682;9.016;2023-07-13T02:43:04;11.60;;;10.60;;
3405;SDS011;10008;48.682;9.016;2023-07-13T02:45:30;11.70;;;10.70;;
3405;SDS011;10008;48.682;9.016;2023-07-13T02:47:56;12.10;;;11.10;;
3405;SDS011;10008;48.682;9.016;2023-07-13T02:50:22;11.90;;;10.90;;
3405;SDS011;10008;48.682;9.016;2023-07-13T02:52:48;11.50;;;10.60;;
3405;SDS011;10008;48.682;9.016;2023-07-13T02:55:13;12.00;;;11.00;;
3405;SDS011;10008;48.682;9.016;2023-07-13T02:57:40;11.47;;;10.57;;
3405;SDS011;10008;48.682;9.016;2023-07-13T03:00:06;11.70;;;10.70;;
3405;SDS011;10008;48.682;9.016;2023-07-13T03:02:33;11.87;;;10.87;;
3405;SDS011;10008;48.682;9.016;2023-07-13T03:04:59;11.90;;;10.90;;
3405;SDS011;10008;48.682;9.016;2023-07-13T03:07:26;11.73;;;10.73;;
3405;SDS011;10008;48.682;9.016;2023-07-13T03:09:56;11.70;;;10.70;;
3405;SDS011;10008;48.682;9.016;2023-07-13T03:12:24;11.80;;;10.80;;
3405;SDS011;10008;48.682;9.016;2023-07-13T03:14:51;12.10;;;11.10;;
3405;SDS011;10008;48.682;9.016;2023-07-13T03:17:17;12.00;;;11.00;;
3405;SDS011;10008;48.682;9.016;2023-07-13T03:19:43;11.80;;;10.80;;
3405;SDS011;10008;48.682;9.016;2023-07-13T03:22:10;11.97;;;10.97;;
3405;SDS011;10008;48.682;9.016;2023-07-13T03:24:37;11.77;;;10.77;;
3405;SDS011;10008;48.682;9.016;2023-07-13T03:27:04;11.80;;;10.80;;
3405;SDS011;10008;48.682;9.016;2023-07-13T03:29:32;11.63;;;10.63;;
3405;SDS011;10008;48.682;9.016;2023-07-13T03:31:58;11.77;;;10.77;;
3405;SDS011;10008;48.682;9.016;2023-07-13T03:34:23;11.90;;;10.90;;
3405;SDS011;10008;48.682;9.016;2023-07-13T03:36:50;11.30;;;10.40;;
3405;SDS011;10008;48.682;9.016;2023-07-13T03:39:15;12.20;;;11.20;;
3405;SDS011;10008;48.682;9.016;2023-07-13T03:41:51;11.80;;;10.80;;
3405;SDS011;10008;48.682;9.016;2023-07-13T03:44:17;12.10;;;11.10;;
3405;SDS011;10008;48.682;9.016;2023-07-13T03:46:44;13.00;;;11.90;;
3405;SDS011;10008;48.682;9.016;2023-07-13T03:49:10;12.90;;;11.80;;
3405;SDS011;10008;48.682;9.016;2023-07-13T03:51:37;13.40;;;12.30;;
3405;SDS011;10008;48.682;9.016;2023-07-13T03:54:04;13.10;;;12.00;;
3405;SDS011;10008;48.682;9.016;2023-07-13T03:56:30;13.60;;;12.40;;
3405;SDS011;10008;48.682;9.016;2023-07-13T03:58:57;13.73;;;12.53;;
3405;SDS011;10008;48.682;9.016;2023-07-13T04:01:24;13.17;;;12.07;;
3405;SDS011;10008;48.682;9.016;2023-07-13T04:03:50;13.10;;;12.00;;
3405;SDS011;10008;48.682;9.016;2023-07-13T04:06:28;13.30;;;12.10;;
3405;SDS011;10008;48.682;9.016;2023-07-13T04:08:55;13.80;;;12.60;;
3405;SDS011;10008;48.682;9.016;2023-07-13T04:11:23;13.40;;;12.20;;
3405;SDS011;10008;48.682;9.016;2023-07-13T04:13:50;13.20;;;12.00;;
3405;SDS011;10008;48.682;9.016;2023-07-13T04:16:17;13.40;;;12.20;;
3405;SDS011;10008;48.682;9.016;2023-07-13T04:18:44;13.10;;;11.90;;
3405;SDS011;10008;48.682;9.016;2023-07-13T04:21:11;13.40;;;12.20;;
3405;SDS011;10008;48.682;9.016;2023-07-13T04:23:37;13.30;;;12.10;;
3405;SDS011;10008;48.682;9.016;2023-07-13T04:26:04;13.20;;;12.00;;
3405;SDS011;10008;48.682;9.016;2023-07-13T04:28:31;12.90;;;11.80;;
3405;SDS011;10008;48.682;9.016;2023-07-13T04:30:57;12.60;;;11.50;;
3405;SDS011;10008;48.682;9.016;2023-07-13T04:33:23;12.43;;;11.33;;
3405;SDS011;10008;48.682;9.016;2023-07-13T04:35:52;13.10;;;12.00;;
3405;SDS011;10008;48.682;9.016;2023-07-13T04:38:29;13.07;;;11.97;;
3405;SDS011;10008;48.682;9.016;2023-07-13T04:40:56;12.80;;;11.70;;
3405;SDS011;10008;48.682;9.016;2023-07-13T04:43:24;13.27;;;12.10;;
3405;SDS011;10008;48.682;9.016;2023-07-13T04:45:51;12.93;;;11.83;;
3405;SDS011;10008;48.682;9.016;2023-07-13T04:48:17;13.13;;;12.03;;
3405;SDS011;10008;48.682;9.016;2023-07-13T04:50:43;13.10;;;12.00;;
3405;SDS011;10008;48.682;9.016;2023-07-13T04:53:10;12.70;;;11.60;;
3405;SDS011;10008;48.682;9.016;2023-07-13T04:55:36;12.23;;;11.20;;
3405;SDS011;10008;48.682;9.016;2023-07-13T04:58:02;12.20;;;11.10;;
3405;SDS011;10008;48.682;9.016;2023-07-13T05:00:28;12.30;;;11.20;;
3405;SDS011;10008;48.682;9.016;2023-07-13T05:02:55;12.33;;;11.23;;
3405;SDS011;10008;48.682;9.016;2023-07-13T05:05:22;12.60;;;11.50;;
3405;SDS011;10008;48.682;9.016;2023-07-13T05:07:49;12.90;;;11.70;;
3405;SDS011;10008;48.682;9.016;2023-07-13T05:10:15;12.70;;;11.50;;
3405;SDS011;10008;48.682;9.016;2023-07-13T05:12:40;13.20;;;12.00;;
3405;SDS011;10008;48.682;9.016;2023-07-13T05:15:06;12.90;;;11.70;;
3405;SDS011;10008;48.682;9.016;2023-07-13T05:17:32;13.00;;;11.80;;
3405;SDS011;10008;48.682;9.016;2023-07-13T05:19:59;12.90;;;11.70;;
3405;SDS011;10008;48.682;9.016;2023-07-13T05:22:24;12.60;;;11.40;;
3405;SDS011;10008;48.682;9.016;2023-07-13T05:24:50;12.90;;;11.70;;
3405;SDS011;10008;48.682;9.016;2023-07-13T05:27:16;13.10;;;11.90;;
3405;SDS011;10008;48.682;9.016;2023-07-13T05:29:41;12.30;;;11.20;;
3405;SDS011;10008;48.682;9.016;2023-07-13T05:32:07;12.40;;;11.30;;
3405;SDS011;10008;48.682;9.016;2023-07-13T05:34:33;12.83;;;11.63;;
3405;SDS011;10008;48.682;9.016;2023-07-13T05:36:59;12.70;;;11.50;;
3405;SDS011;10008;48.682;9.016;2023-07-13T05:39:25;12.90;;;11.70;;
3405;SDS011;10008;48.682;9.016;2023-07-13T05:41:52;12.77;;;11.57;;
3405;SDS011;10008;48.682;9.016;2023-07-13T05:44:18;13.23;;;12.13;;
3405;SDS011;10008;48.682;9.016;2023-07-13T05:46:44;12.50;;;11.40;;
3405;SDS011;10008;48.682;9.016;2023-07-13T05:49:10;13.00;;;11.80;;
3405;SDS011;10008;48.682;9.016;2023-07-13T05:51:36;12.60;;;11.50;;
3405;SDS011;10008;48.682;9.016;2023-07-13T05:54:02;12.50;;;11.40;;
3405;SDS011;10008;48.682;9.016;2023-07-13T05:56:28;12.50;;;11.40;;
3405;SDS011;10008;48.682;9.016;2023-07-13T05:58:54;12.93;;;11.83;;
3405;SDS011;10008;48.682;9.016;2023-07-13T06:01:19;13.00;;;11.80;;
3405;SDS011;10008;48.682;9.016;2023-07-13T06:03:46;12.80;;;11.60;;
3405;SDS011;10008;48.682;9.016;2023-07-13T06:06:12;13.00;;;11.80;;
3405;SDS011;10008;48.682;9.016;2023-07-13T06:08:38;15.10;;;13.80;;
3405;SDS011;10008;48.682;9.016;2023-07-13T06:11:09;13.07;;;11.87;;
3405;SDS011;10008;48.682;9.016;2023-07-13T06:13:35;13.17;;;11.97;;
3405;SDS011;10008;48.682;9.016;2023-07-13T06:16:02;13.40;;;12.20;;
3405;SDS011;10008;48.682;9.016;2023-07-13T06:18:32;23.63;;;16.97;;
3405;SDS011;10008;48.682;9.016;2023-07-13T06:20:58;13.60;;;12.30;;
3405;SDS011;10008;48.682;9.016;2023-07-13T06:23:24;14.00;;;12.70;;
3405;SDS011;10008;48.682;9.016;2023-07-13T06:25:51;13.97;;;12.67;;
3405;SDS011;10008;48.682;9.016;2023-07-13T06:28:16;14.00;;;12.70;;
3405;SDS011;10008;48.682;9.016;2023-07-13T06:30:42;14.50;;;13.10;;
3405;SDS011;10008;48.682;9.016;2023-07-13T06:33:08;14.40;;;13.10;;
3405;SDS011;10008;48.682;9.016;2023-07-13T06:35:33;14.53;;;13.20;;
3405;SDS011;10008;48.682;9.016;2023-07-13T06:37:59;14.43;;;13.07;;
3405;SDS011;10008;48.682;9.016;2023-07-13T06:40:25;13.80;;;12.50;;
3405;SDS011;10008;48.682;9.016;2023-07-13T06:42:51;14.10;;;12.77;;
3405;SDS011;10008;48.682;9.016;2023-07-13T06:45:16;14.20;;;12.90;;
3405;SDS011;10008;48.682;9.016;2023-07-13T06:47:42;15.10;;;13.70;;
3405;SDS011;10008;48.682;9.016;2023-07-13T06:50:08;15.17;;;13.77;;
3405;SDS011;10008;48.682;9.016;2023-07-13T06:52:34;15.30;;;13.90;;
3405;SDS011;10008;48.682;9.016;2023-07-13T06:55:00;16.10;;;14.70;;
3405;SDS011;10008;48.682;9.016;2023-07-13T06:57:26;15.50;;;14.10;;
3405;SDS011;10008;48.682;9.016;2023-07-13T06:59:52;15.30;;;13.90;;
3405;SDS011;10008;48.682;9.016;2023-07-13T07:02:18;15.70;;;14.30;;
3405;SDS011;10008;48.682;9.016;2023-07-13T07:04:44;16.03;;;14.63;;
3405;SDS011;10008;48.682;9.016;2023-07-13T07:07:09;15.30;;;14.00;;
3405;SDS011;10008;48.682;9.016;2023-07-13T07:09:35;15.00;;;13.70;;
3405;SDS011;10008;48.682;9.016;2023-07-13T07:12:02;14.83;;;13.53;;
3405;SDS011;10008;48.682;9.016;2023-07-13T07:14:28;14.50;;;13.20;;
3405;SDS011;10008;48.682;9.016;2023-07-13T07:16:54;15.20;;;13.80;;
3405;SDS011;10008;48.682;9.016;2023-07-13T07:19:20;14.83;;;13.50;;
3405;SDS011;10008;48.682;9.016;2023-07-13T07:21:46;15.23;;;13.87;;
3405;SDS011;10008;48.682;9.016;2023-07-13T07:24:12;16.30;;;14.80;;
3405;SDS011;10008;48.682;9.016;2023-07-13T07:26:37;15.60;;;14.20;;
3405;SDS011;10008;48.682;9.016;2023-07-13T07:29:03;15.30;;;13.90;;
3405;SDS011;10008;48.682;9.016;2023-07-13T07:31:29;15.37;;;13.97;;
3405;SDS011;10008;48.682;9.016;2023-07-13T07:33:55;15.10;;;13.70;;
3405;SDS011;10008;48.682;9.016;2023-07-13T07:36:20;15.10;;;13.70;;
3405;SDS011;10008;48.682;9.016;2023-07-13T07:38:46;15.10;;;13.70;;
3405;SDS011;10008;48.682;9.016;2023-07-13T07:41:12;15.30;;;13.90;;
3405;SDS011;10008;48.682;9.016;2023-07-13T07:43:38;15.70;;;14.20;;
3405;SDS011;10008;48.682;9.016;2023-07-13T07:46:03;15.50;;;14.10;;
3405;SDS011;10008;48.682;9.016;2023-07-13T07:48:29;15.57;;;14.17;;
3405;SDS011;10008;48.682;9.016;2023-07-13T07:50:56;15.47;;;14.07;;
3405;SDS011;10008;48.682;9.016;2023-07-13T07:53:21;15.50;;;14.10;;
3405;SDS011;10008;48.682;9.016;2023-07-13T07:55:47;15.60;;;14.20;;
3405;SDS011;10008;48.682;9.016;2023-07-13T07:58:13;15.70;;;14.30;;
3405;SDS011;10008;48.682;9.016;2023-07-13T08:00:40;15.77;;;14.37;;
3405;SDS011;10008;48.682;9.016;2023-07-13T08:03:05;15.10;;;13.70;;
3405;SDS011;10008;48.682;9.016;2023-07-13T08:05:31;15.20;;;13.80;;
3405;SDS011;10008;48.682;9.016;2023-07-13T08:07:59;15.37;;;13.97;;
3405;SDS011;10008;48.682;9.016;2023-07-13T08:10:25;15.40;;;14.00;;
3405;SDS011;10008;48.682;9.016;2023-07-13T08:12:51;15.13;;;13.80;;
3405;SDS011;10008;48.682;9.016;2023-07-13T08:15:17;15.20;;;13.90;;
3405;SDS011;10008;48.682;9.016;2023-07-13T08:17:45;15.20;;;13.90;;
3405;SDS011;10008;48.682;9.016;2023-07-13T08:20:14;15.10;;;13.80;;
3405;SDS011;10008;48.682;9.016;2023-07-13T08:22:41;15.57;;;14.17;;
3405;SDS011;10008;48.682;9.016;2023-07-13T08:25:07;15.70;;;14.30;;
3405;SDS011;10008;48.682;9.016;2023-07-13T08:27:33;15.67;;;14.27;;
3405;SDS011;10008;48.682;9.016;2023-07-13T08:29:59;15.70;;;14.30;;
3405;SDS011;10008;48.682;9.016;2023-07-13T08:32:24;15.60;;;14.20;;
3405;SDS011;10008;48.682;9.016;2023-07-13T08:34:50;16.03;;;14.63;;
3405;SDS011;10008;48.682;9.016;2023-07-13T08:37:17;15.83;;;14.43;;
3405;SDS011;10008;48.682;9.016;2023-07-13T08:39:43;15.70;;;14.40;;
3405;SDS011;10008;48.682;9.016;2023-07-13T08:42:22;15.57;;;14.17;;
3405;SDS011;10008;48.682;9.016;2023-07-13T08:45:04;15.40;;;14.10;;
3405;SDS011;10008;48.682;9.016;2023-07-13T08:50:38;15.20;;;13.90;;
3405;SDS011;10008;48.682;9.016;2023-07-13T08:53:14;15.70;;;14.30;;
3405;SDS011;10008;48.682;9.016;2023-07-13T08:55:41;15.30;;;14.00;;
3405;SDS011;10008;48.682;9.016;2023-07-13T08:58:12;15.00;;;13.67;;
3405;SDS011;10008;48.682;9.016;2023-07-13T09:01:28;15.30;;;13.90;;
3405;SDS011;10008;48.682;9.016;2023-07-13T09:12:02;15.00;;;13.60;;
3405;SDS011;10008;48.682;9.016;2023-07-13T09:14:45;14.90;;;13.50;;
3405;SDS011;10008;48.682;9.016;2023-07-13T09:17:15;14.97;;;13.57;;
3405;SDS011;10008;48.682;9.016;2023-07-13T09:19:53;15.10;;;13.70;;
3405;SDS011;10008;48.682;9.016;2023-07-13T09:22:24;14.80;;;13.40;;
3405;SDS011;10008;48.682;9.016;2023-07-13T09:24:55;15.00;;;13.60;;
3405;SDS011;10008;48.682;9.016;2023-07-13T09:27:39;14.60;;;13.20;;
3405;SDS011;10008;48.682;9.016;2023-07-13T09:32:39;15.00;;;13.60;;
3405;SDS011;10008;48.682;9.016;2023-07-13T09:35:15;15.13;;;13.70;;
3405;SDS011;10008;48.682;9.016;2023-07-13T09:37:44;14.60;;;13.20;;
3405;SDS011;10008;48.682;9.016;2023-07-13T09:40:14;15.10;;;13.70;;
3405;SDS011;10008;48.682;9.016;2023-07-13T09:42:48;14.80;;;13.40;;
3405;SDS011;10008;48.682;9.016;2023-07-13T09:45:17;14.90;;;13.50;;
3405;SDS011;10008;48.682;9.016;2023-07-13T09:47:58;14.70;;;13.30;;
3405;SDS011;10008;48.682;9.016;2023-07-13T09:50:45;14.70;;;13.30;;
3405;SDS011;10008;48.682;9.016;2023-07-13T09:53:14;14.37;;;13.07;;
3405;SDS011;10008;48.682;9.016;2023-07-13T09:55:43;14.77;;;13.37;;
3405;SDS011;10008;48.682;9.016;2023-07-13T10:00:42;14.20;;;12.80;;
3405;SDS011;10008;48.682;9.016;2023-07-13T10:05:47;14.00;;;12.70;;
3405;SDS011;10008;48.682;9.016;2023-07-13T10:10:52;14.97;;;13.67;;
3405;SDS011;10008;48.682;9.016;2023-07-13T10:13:26;14.57;;;13.27;;
3405;SDS011;10008;48.682;9.016;2023-07-13T10:16:02;14.53;;;13.23;;
3405;SDS011;10008;48.682;9.016;2023-07-13T10:18:31;15.07;;;13.67;;
3405;SDS011;10008;48.682;9.016;2023-07-13T10:21:21;14.30;;;13.00;;
3405;SDS011;10008;48.682;9.016;2023-07-13T10:23:51;14.93;;;13.53;;
3405;SDS011;10008;48.682;9.016;2023-07-13T10:26:32;14.07;;;12.77;;
3405;SDS011;10008;48.682;9.016;2023-07-13T10:29:02;14.47;;;13.10;;
3405;SDS011;10008;48.682;9.016;2023-07-13T10:31:33;14.13;;;12.83;;
3405;SDS011;10008;48.682;9.016;2023-07-13T10:34:02;14.50;;;13.10;;
3405;SDS011;10008;48.682;9.016;2023-07-13T10:36:30;15.00;;;13.60;;
3405;SDS011;10008;48.682;9.016;2023-07-13T10:39:26;14.90;;;13.50;;
3405;SDS011;10008;48.682;9.016;2023-07-13T10:41:54;19.63;;;14.67;;
3405;SDS011;10008;48.682;9.016;2023-07-13T10:44:30;15.20;;;13.80;;
3405;SDS011;10008;48.682;9.016;2023-07-13T10:47:06;14.50;;;13.10;;
3405;SDS011;10008;48.682;9.016;2023-07-13T10:49:37;15.17;;;13.77;;
3405;SDS011;10008;48.682;9.016;2023-07-13T10:52:04;14.67;;;13.27;;
3405;SDS011;10008;48.682;9.016;2023-07-13T10:54:33;14.93;;;13.53;;
3405;SDS011;10008;48.682;9.016;2023-07-13T10:57:20;15.10;;;13.70;;
3405;SDS011;10008;48.682;9.016;2023-07-13T11:02:28;14.50;;;13.20;;
3405;SDS011;10008;48.682;9.016;2023-07-13T11:04:54;14.50;;;13.20;;
3405;SDS011;10008;48.682;9.016;2023-07-13T11:07:23;14.63;;;13.30;;
3405;SDS011;10008;48.682;9.016;2023-07-13T11:09:55;14.90;;;13.60;;
3405;SDS011;10008;48.682;9.016;2023-07-13T11:23:07;14.47;;;13.17;;
3405;SDS011;10008;48.682;9.016;2023-07-13T11:25:42;14.20;;;12.90;;
3405;SDS011;10008;48.682;9.016;2023-07-13T11:33:23;14.47;;;13.10;;
3405;SDS011;10008;48.682;9.016;2023-07-13T11:36:14;14.83;;;13.43;;
3405;SDS011;10008;48.682;9.016;2023-07-13T11:41:30;15.00;;;13.60;;
3405;SDS011;10008;48.682;9.016;2023-07-13T11:44:13;14.70;;;13.30;;
3405;SDS011;10008;48.682;9.016;2023-07-13T11:46:52;14.60;;;13.20;;
3405;SDS011;10008;48.682;9.016;2023-07-13T11:49:20;14.83;;;13.43;;
3405;SDS011;10008;48.682;9.016;2023-07-13T11:51:52;14.80;;;13.40;;
3405;SDS011;10008;48.682;9.016;2023-07-13T11:54:23;14.70;;;13.30;;
3405;SDS011;10008;48.682;9.016;2023-07-13T11:56:49;16.80;;;15.30;;
3405;SDS011;10008;48.682;9.016;2023-07-13T11:59:15;14.80;;;13.30;;
3405;SDS011;10008;48.682;9.016;2023-07-13T12:01:42;14.70;;;13.30;;
3405;SDS011;10008;48.682;9.016;2023-07-13T12:04:32;14.70;;;13.30;;
3405;SDS011;10008;48.682;9.016;2023-07-13T12:07:15;14.50;;;13.10;;
3405;SDS011;10008;48.682;9.016;2023-07-13T12:09:42;14.90;;;13.50;;
3405;SDS011;10008;48.682;9.016;2023-07-13T12:12:12;14.90;;;13.50;;
3405;SDS011;10008;48.682;9.016;2023-07-13T12:14:39;15.77;;;14.17;;
3405;SDS011;10008;48.682;9.016;2023-07-13T12:17:22;15.40;;;14.00;;
3405;SDS011;10008;48.682;9.016;2023-07-13T12:19:49;15.50;;;14.00;;
3405;SDS011;10008;48.682;9.016;2023-07-13T12:22:16;14.80;;;13.40;;
3405;SDS011;10008;48.682;9.016;2023-07-13T12:24:44;15.10;;;13.70;;
3405;SDS011;10008;48.682;9.016;2023-07-13T12:27:24;14.90;;;13.50;;
3405;SDS011;10008;48.682;9.016;2023-07-13T12:29:53;15.10;;;13.70;;
3405;SDS011;10008;48.682;9.016;2023-07-13T12:32:24;15.50;;;14.00;;
3405;SDS011;10008;48.682;9.016;2023-07-13T12:34:51;15.50;;;14.00;;
3405;SDS011;10008;48.682;9.016;2023-07-13T12:37:18;15.23;;;13.77;;
3405;SDS011;10008;48.682;9.016;2023-07-13T12:39:45;15.00;;;13.53;;
3405;SDS011;10008;48.682;9.016;2023-07-13T12:45:03;15.57;;;14.07;;
3405;SDS011;10008;48.682;9.016;2023-07-13T12:47:41;15.50;;;14.00;;
3405;SDS011;10008;48.682;9.016;2023-07-13T12:50:14;15.37;;;13.87;;
3405;SDS011;10008;48.682;9.016;2023-07-13T12:52:42;15.10;;;13.60;;
3405;SDS011;10008;48.682;9.016;2023-07-13T12:55:19;15.03;;;13.53;;
3405;SDS011;10008;48.682;9.016;2023-07-13T12:57:50;15.47;;;13.97;;
3405;SDS011;10008;48.682;9.016;2023-07-13T13:00:20;15.20;;;13.80;;
3405;SDS011;10008;48.682;9.016;2023-07-13T13:02:54;15.50;;;14.00;;
3405;SDS011;10008;48.682;9.016;2023-07-13T13:05:21;15.00;;;13.60;;
3405;SDS011;10008;48.682;9.016;2023-07-13T13:07:50;15.13;;;13.73;;
3405;SDS011;10008;48.682;9.016;2023-07-13T13:10:16;15.20;;;13.80;;
3405;SDS011;10008;48.682;9.016;2023-07-13T13:12:41;15.10;;;13.70;;
3405;SDS011;10008;48.682;9.016;2023-07-13T13:15:08;14.80;;;13.40;;
3405;SDS011;10008;48.682;9.016;2023-07-13T13:17:34;14.43;;;13.03;;
3405;SDS011;10008;48.682;9.016;2023-07-13T13:20:00;14.43;;;13.13;;
3405;SDS011;10008;48.682;9.016;2023-07-13T13:22:27;14.50;;;13.20;;
3405;SDS011;10008;48.682;9.016;2023-07-13T13:24:52;14.30;;;13.00;;
3405;SDS011;10008;48.682;9.016;2023-07-13T13:27:22;14.23;;;12.93;;
3405;SDS011;10008;48.682;9.016;2023-07-13T13:29:49;14.20;;;12.90;;
3405;SDS011;10008;48.682;9.016;2023-07-13T13:32:19;15.60;;;14.20;;
3405;SDS011;10008;48.682;9.016;2023-07-13T13:34:45;19.43;;;16.03;;
3405;SDS011;10008;48.682;9.016;2023-07-13T13:37:21;14.20;;;12.90;;
3405;SDS011;10008;48.682;9.016;2023-07-13T13:39:49;14.67;;;13.27;;
3405;SDS011;10008;48.682;9.016;2023-07-13T13:42:16;14.30;;;13.00;;
3405;SDS011;10008;48.682;9.016;2023-07-13T13:44:41;14.10;;;12.80;;
3405;SDS011;10008;48.682;9.016;2023-07-13T13:47:13;14.10;;;12.80;;
3405;SDS011;10008;48.682;9.016;2023-07-13T13:49:49;14.27;;;12.97;;
3405;SDS011;10008;48.682;9.016;2023-07-13T13:52:15;14.37;;;13.07;;
3405;SDS011;10008;48.682;9.016;2023-07-13T13:54:41;14.50;;;13.20;;
3405;SDS011;10008;48.682;9.016;2023-07-13T13:57:08;14.20;;;12.90;;
3405;SDS011;10008;48.682;9.016;2023-07-13T13:59:33;14.40;;;13.10;;
3405;SDS011;10008;48.682;9.016;2023-07-13T14:02:11;14.50;;;13.20;;
3405;SDS011;10008;48.682;9.016;2023-07-13T14:04:50;14.40;;;13.10;;
3405;SDS011;10008;48.682;9.016;2023-07-13T14:07:19;14.80;;;13.50;;
3405;SDS011;10008;48.682;9.016;2023-07-13T14:09:45;14.60;;;13.30;;
3405;SDS011;10008;48.682;9.016;2023-07-13T14:12:10;15.60;;;14.10;;
3405;SDS011;10008;48.682;9.016;2023-07-13T14:14:39;14.90;;;13.50;;
3405;SDS011;10008;48.682;9.016;2023-07-13T14:17:11;17.30;;;15.80;;
3405;SDS011;10008;48.682;9.016;2023-07-13T14:19:48;14.40;;;13.10;;
3405;SDS011;10008;48.682;9.016;2023-07-13T14:22:19;14.67;;;13.27;;
3405;SDS011;10008;48.682;9.016;2023-07-13T14:24:45;18.03;;;16.20;;
3405;SDS011;10008;48.682;9.016;2023-07-13T14:27:11;14.30;;;13.00;;
3405;SDS011;10008;48.682;9.016;2023-07-13T14:29:37;14.63;;;13.33;;
3405;SDS011;10008;48.682;9.016;2023-07-13T14:32:03;14.60;;;13.30;;
3405;SDS011;10008;48.682;9.016;2023-07-13T14:34:31;15.40;;;14.10;;
3405;SDS011;10008;48.682;9.016;2023-07-13T14:36:56;15.87;;;14.27;;
3405;SDS011;10008;48.682;9.016;2023-07-13T14:39:23;14.40;;;13.10;;
3405;SDS011;10008;48.682;9.016;2023-07-13T14:41:50;14.17;;;12.87;;
3405;SDS011;10008;48.682;9.016;2023-07-13T14:44:20;14.57;;;13.23;;
3405;SDS011;10008;48.682;9.016;2023-07-13T14:46:49;17.97;;;16.23;;
3405;SDS011;10008;48.682;9.016;2023-07-13T14:49:21;14.83;;;13.20;;
3405;SDS011;10008;48.682;9.016;2023-07-13T14:51:51;14.37;;;13.07;;
3405;SDS011;10008;48.682;9.016;2023-07-13T14:54:17;14.40;;;13.10;;
3405;SDS011;10008;48.682;9.016;2023-07-13T14:56:43;14.87;;;13.47;;
3405;SDS011;10008;48.682;9.016;2023-07-13T14:59:08;14.57;;;13.27;;
3405;SDS011;10008;48.682;9.016;2023-07-13T15:01:35;14.10;;;12.80;;
3405;SDS011;10008;48.682;9.016;2023-07-13T15:04:02;14.13;;;12.83;;
3405;SDS011;10008;48.682;9.016;2023-07-13T15:06:29;14.10;;;12.80;;
3405;SDS011;10008;48.682;9.016;2023-07-13T15:08:56;15.20;;;13.70;;
3405;SDS011;10008;48.682;9.016;2023-07-13T15:11:22;14.30;;;13.00;;
3405;SDS011;10008;48.682;9.016;2023-07-13T15:13:49;14.70;;;13.30;;
3405;SDS011;10008;48.682;9.016;2023-07-13T15:16:23;14.90;;;13.57;;
3405;SDS011;10008;48.682;9.016;2023-07-13T15:18:50;14.33;;;13.03;;
3405;SDS011;10008;48.682;9.016;2023-07-13T15:21:21;14.40;;;13.10;;
3405;SDS011;10008;48.682;9.016;2023-07-13T15:23:49;14.07;;;12.77;;
3405;SDS011;10008;48.682;9.016;2023-07-13T15:26:16;14.40;;;13.10;;
3405;SDS011;10008;48.682;9.016;2023-07-13T15:28:43;14.63;;;13.33;;